Time;durP1;ratioP1;P1;durP2;ratioP2;P2;SDS_P1;SDS_P2;PMS_P1;PMS_P2;Temp;Humidity;BMP_temperature;BMP_pressure;BME280_temperature;BME280_humidity;BME280_pressure;Samples;Min_cycle;Max_cycle;Signal;HPM_P1;HPM_P2
2021/05/13 00:01:20;;;;;;;17.15;3.95;;;;;;;;;;5054393;28;20063;-66
2021/05/13 00:03:46;;;;;;;20.65;4.20;;;;;;;;;;5054516;28;20037;-66
2021/05/13 00:06:11;;;;;;;18.80;4.22;;;;;;;;;;5054403;28;20032;-66
2021/05/13 00:08:37;;;;;;;23.08;4.97;;;;;;;;;;5054127;28;20108;-66
2021/05/13 00:11:04;;;;;;;18.23;4.32;;;;;;;;;;5053923;28;20040;-66
2021/05/13 00:13:30;;;;;;;23.77;4.93;;;;;;;;;;5054290;28;20039;-66
2021/05/13 00:15:56;;;;;;;26.48;4.93;;;;;;;;;;5054179;28;20039;-66
2021/05/13 00:18:21;;;;;;;11.80;4.30;;;;;;;;;;5053871;28;20021;-66
2021/05/13 00:20:47;;;;;;;16.98;4.93;;;;;;;;;;5054091;28;20017;-66
2021/05/13 00:23:12;;;;;;;20.17;4.97;;;;;;;;;;5054060;28;20036;-66
2021/05/13 00:25:37;;;;;;;27.60;5.05;;;;;;;;;;5054012;28;20037;-66
2021/05/13 00:28:03;;;;;;;24.63;5.20;;;;;;;;;;5053786;28;20021;-66
2021/05/13 00:30:29;;;;;;;21.63;5.32;;;;;;;;;;5053427;28;20539;-66
2021/05/13 00:32:55;;;;;;;22.92;5.78;;;;;;;;;;5053534;28;20055;-66
2021/05/13 00:35:20;;;;;;;23.77;4.70;;;;;;;;;;5053411;28;20488;-66
2021/05/13 00:37:46;;;;;;;23.30;5.53;;;;;;;;;;5053487;28;20087;-66
2021/05/13 00:40:12;;;;;;;16.25;5.07;;;;;;;;;;5053423;28;20045;-66
2021/05/13 00:42:38;;;;;;;18.58;5.55;;;;;;;;;;5053699;28;20028;-66
2021/05/13 00:45:05;;;;;;;15.27;4.93;;;;;;;;;;5053545;28;20033;-66
2021/05/13 00:47:34;;;;;;;19.70;5.55;;;;;;;;;;5053558;28;20113;-66
2021/05/13 00:49:59;;;;;;;22.73;5.00;;;;;;;;;;5053936;28;20020;-66
2021/05/13 00:52:25;;;;;;;18.90;5.03;;;;;;;;;;5053076;28;20473;-66
2021/05/13 00:54:50;;;;;;;26.05;6.10;;;;;;;;;;5053809;28;20032;-66
2021/05/13 00:57:16;;;;;;;21.55;5.22;;;;;;;;;;5053251;28;20112;-66
2021/05/13 00:59:45;;;;;;;31.25;5.50;;;;;;;;;;5053524;28;20036;-66
2021/05/13 01:02:11;;;;;;;13.75;4.03;;;;;;;;;;5052863;28;20488;-66
2021/05/13 01:04:36;;;;;;;14.00;3.97;;;;;;;;;;5053315;28;20021;-66
2021/05/13 01:07:02;;;;;;;12.80;3.50;;;;;;;;;;5052950;28;20029;-66
2021/05/13 01:09:30;;;;;;;19.05;4.28;;;;;;;;;;5052975;28;20436;-66
2021/05/13 01:12:00;;;;;;;15.45;4.65;;;;;;;;;;5053212;28;20035;-66
2021/05/13 01:14:29;;;;;;;20.35;4.28;;;;;;;;;;5053193;28;20432;-66
2021/05/13 01:17:40;;;;;;;18.38;5.28;;;;;;;;;;5053121;28;20029;-66
2021/05/13 01:19:46;;;;;;;16.20;4.22;;;;;;;;;;5052347;28;20388;-66
2021/05/13 01:22:12;;;;;;;15.20;4.10;;;;;;;;;;5052880;28;20451;-66
2021/05/13 01:24:37;;;;;;;18.10;4.35;;;;;;;;;;5053081;28;20444;-66
2021/05/13 01:27:03;;;;;;;16.27;3.83;;;;;;;;;;5053010;28;20032;-66
2021/05/13 01:29:28;;;;;;;18.50;3.78;;;;;;;;;;5053022;28;20070;-66
2021/05/13 01:31:54;;;;;;;14.23;3.90;;;;;;;;;;5052702;28;20025;-66
2021/05/13 01:34:21;;;;;;;16.25;4.53;;;;;;;;;;5053003;28;20086;-66
2021/05/13 01:36:46;;;;;;;16.35;3.72;;;;;;;;;;5052609;28;20465;-66
2021/05/13 01:39:12;;;;;;;16.90;3.22;;;;;;;;;;5052816;28;20123;-66
2021/05/13 01:41:38;;;;;;;12.60;3.17;;;;;;;;;;5052349;28;20045;-66
2021/05/13 01:44:04;;;;;;;14.05;3.83;;;;;;;;;;5052635;28;20489;-66
2021/05/13 01:46:29;;;;;;;11.23;3.60;;;;;;;;;;5052639;28;20033;-66
2021/05/13 01:48:55;;;;;;;15.85;3.67;;;;;;;;;;5052973;28;20028;-66
2021/05/13 01:51:20;;;;;;;18.55;4.50;;;;;;;;;;5052321;28;20440;-66
2021/05/13 01:53:46;;;;;;;8.38;3.45;;;;;;;;;;5052594;28;20041;-66
2021/05/13 01:56:12;;;;;;;20.40;4.50;;;;;;;;;;5052612;28;20021;-66
2021/05/13 01:58:38;;;;;;;23.90;4.15;;;;;;;;;;5052912;28;20116;-66
2021/05/13 02:01:04;;;;;;;21.63;4.45;;;;;;;;;;5051969;28;20100;-66
2021/05/13 02:03:29;;;;;;;15.18;3.72;;;;;;;;;;5052546;28;20025;-66
2021/05/13 02:05:55;;;;;;;26.20;5.15;;;;;;;;;;5052506;28;20048;-66
2021/05/13 02:08:21;;;;;;;17.35;4.03;;;;;;;;;;5052341;28;20025;-66
2021/05/13 02:10:46;;;;;;;16.13;4.20;;;;;;;;;;5052855;28;20469;-66
2021/05/13 02:13:12;;;;;;;22.40;4.00;;;;;;;;;;5052435;28;20108;-66
2021/05/13 02:15:37;;;;;;;18.85;4.15;;;;;;;;;;5052668;28;20667;-66
2021/05/13 02:18:03;;;;;;;20.73;4.30;;;;;;;;;;5053896;28;20131;-66
2021/05/13 02:20:28;;;;;;;23.67;4.80;;;;;;;;;;5056440;28;20040;-66
2021/05/13 02:22:55;;;;;;;16.25;5.30;;;;;;;;;;5056363;28;20461;-66
2021/05/13 02:25:20;;;;;;;19.83;5.10;;;;;;;;;;5056296;28;20041;-66
2021/05/13 02:27:45;;;;;;;20.52;5.28;;;;;;;;;;5055896;28;20040;-66
2021/05/13 02:30:12;;;;;;;20.83;5.30;;;;;;;;;;5056107;28;20021;-66
2021/05/13 02:32:37;;;;;;;20.92;5.22;;;;;;;;;;5056228;28;20029;-66
2021/05/13 02:35:04;;;;;;;22.10;5.80;;;;;;;;;;5056155;28;20109;-66
2021/05/13 02:37:29;;;;;;;21.75;5.97;;;;;;;;;;5056079;28;20755;-66
2021/05/13 02:39:54;;;;;;;29.70;6.25;;;;;;;;;;5055873;28;20099;-66
2021/05/13 02:42:20;;;;;;;20.70;6.32;;;;;;;;;;5055861;28;20041;-66
2021/05/13 02:44:46;;;;;;;24.42;6.18;;;;;;;;;;5056062;28;20049;-66
2021/05/13 02:47:11;;;;;;;22.23;6.45;;;;;;;;;;5056038;28;20021;-66
2021/05/13 02:49:36;;;;;;;24.70;7.28;;;;;;;;;;5056337;28;20048;-66
2021/05/13 02:52:02;;;;;;;29.52;7.15;;;;;;;;;;5055766;28;20032;-66
2021/05/13 02:54:27;;;;;;;36.25;7.88;;;;;;;;;;5055867;28;20021;-66
2021/05/13 02:56:53;;;;;;;18.10;7.68;;;;;;;;;;5055636;28;20033;-66
2021/05/13 02:59:18;;;;;;;27.48;7.28;;;;;;;;;;5056081;28;20108;-66
2021/05/13 03:01:44;;;;;;;20.85;8.20;;;;;;;;;;5055643;28;20017;-66
2021/05/13 03:04:09;;;;;;;23.88;8.73;;;;;;;;;;5055702;28;20385;-66
2021/05/13 03:06:37;;;;;;;30.20;7.45;;;;;;;;;;5055372;28;20029;-66
2021/05/13 03:09:02;;;;;;;24.65;8.52;;;;;;;;;;5055643;28;20021;-66
2021/05/13 03:11:28;;;;;;;38.97;9.88;;;;;;;;;;5055357;28;20496;-66
2021/05/13 03:13:55;;;;;;;28.88;8.68;;;;;;;;;;5055517;28;20025;-66
2021/05/13 03:16:22;;;;;;;25.88;8.80;;;;;;;;;;5055234;28;20021;-66
2021/05/13 03:18:52;;;;;;;30.67;10.07;;;;;;;;;;5055512;28;20060;-66
2021/05/13 03:21:32;;;;;;;34.35;9.68;;;;;;;;;;5055115;28;20017;-65
2021/05/13 03:29:03;;;;;;;45.03;10.95;;;;;;;;;;5054772;28;20021;-66
2021/05/13 03:31:29;;;;;;;32.85;9.95;;;;;;;;;;5054932;28;20037;-66
2021/05/13 03:33:54;;;;;;;26.20;9.25;;;;;;;;;;5055190;28;20350;-66
2021/05/13 03:36:19;;;;;;;34.88;9.50;;;;;;;;;;5054601;28;20370;-66
2021/05/13 03:38:44;;;;;;;26.67;9.82;;;;;;;;;;5054999;28;20059;-66
2021/05/13 03:41:10;;;;;;;32.20;10.07;;;;;;;;;;5054714;28;20482;-66
2021/05/13 03:43:35;;;;;;;44.30;10.23;;;;;;;;;;5054916;28;20021;-66
2021/05/13 03:46:00;;;;;;;39.90;10.48;;;;;;;;;;5054851;28;20045;-66
2021/05/13 03:48:26;;;;;;;35.13;11.55;;;;;;;;;;5054754;28;20017;-66
2021/05/13 03:50:51;;;;;;;35.15;10.65;;;;;;;;;;5053686;28;20021;-66
2021/05/13 03:53:16;;;;;;;32.33;10.70;;;;;;;;;;5054454;28;20497;-66
2021/05/13 03:55:45;;;;;;;26.85;10.55;;;;;;;;;;5054723;28;20100;-66
2021/05/13 03:58:11;;;;;;;45.08;12.05;;;;;;;;;;5054527;28;20124;-66
2021/05/13 04:03:11;;;;;;;67.32;13.50;;;;;;;;;;5054045;28;20051;-66
2021/05/13 04:05:36;;;;;;;45.15;13.25;;;;;;;;;;5054422;28;20049;-66
2021/05/13 04:08:02;;;;;;;44.88;13.50;;;;;;;;;;5054590;28;20020;-66
2021/05/13 04:10:28;;;;;;;33.20;12.90;;;;;;;;;;5054384;28;20017;-66
2021/05/13 04:12:56;;;;;;;42.58;12.85;;;;;;;;;;5054330;28;20473;-67
2021/05/13 04:15:21;;;;;;;32.85;12.45;;;;;;;;;;5053903;28;20473;-66
2021/05/13 04:17:47;;;;;;;40.80;13.73;;;;;;;;;;5054192;28;20048;-66
2021/05/13 04:20:12;;;;;;;47.65;14.25;;;;;;;;;;5054199;28;20036;-66
2021/05/13 04:22:37;;;;;;;36.38;13.10;;;;;;;;;;5054014;28;20446;-66
2021/05/13 04:25:04;;;;;;;45.28;15.68;;;;;;;;;;5054203;28;20025;-66
2021/05/13 04:27:29;;;;;;;77.85;17.05;;;;;;;;;;5053861;28;20068;-66
2021/05/13 04:29:54;;;;;;;63.72;16.35;;;;;;;;;;5054034;28;20426;-66
2021/05/13 04:32:20;;;;;;;42.53;14.73;;;;;;;;;;5053749;28;20017;-66
2021/05/13 04:34:45;;;;;;;49.20;15.40;;;;;;;;;;5053966;28;20043;-66
2021/05/13 04:37:10;;;;;;;52.20;15.65;;;;;;;;;;5053415;28;20103;-66
2021/05/13 04:39:36;;;;;;;38.47;14.75;;;;;;;;;;5053717;28;20066;-66
2021/05/13 04:42:01;;;;;;;39.05;14.00;;;;;;;;;;5052961;28;20037;-66
2021/05/13 04:44:26;;;;;;;31.10;13.60;;;;;;;;;;5053680;28;20431;-66
2021/05/13 04:46:58;;;;;;;44.53;15.10;;;;;;;;;;5052259;28;20366;-66
2021/05/13 04:49:24;;;;;;;38.70;14.18;;;;;;;;;;5053615;28;20230;-66
2021/05/13 04:51:49;;;;;;;33.15;13.55;;;;;;;;;;5053595;28;20150;-66
2021/05/13 04:54:17;;;;;;;40.60;15.40;;;;;;;;;;5053298;28;20355;-66
2021/05/13 04:56:42;;;;;;;37.00;12.85;;;;;;;;;;5053054;28;20370;-66
2021/05/13 04:59:08;;;;;;;39.10;14.50;;;;;;;;;;5053490;28;20079;-66
2021/05/13 05:01:33;;;;;;;48.47;15.60;;;;;;;;;;5053369;28;20025;-65
2021/05/13 05:03:59;;;;;;;38.75;14.63;;;;;;;;;;5053524;28;20245;-66
2021/05/13 05:06:24;;;;;;;42.80;13.30;;;;;;;;;;5053174;28;20037;-66
2021/05/13 05:08:49;;;;;;;37.25;13.40;;;;;;;;;;5053463;28;20025;-66
2021/05/13 05:11:17;;;;;;;50.95;14.65;;;;;;;;;;5053212;28;20120;-66
2021/05/13 05:13:42;;;;;;;40.55;13.57;;;;;;;;;;5053579;28;20017;-66
2021/05/13 05:16:07;;;;;;;53.35;15.43;;;;;;;;;;5053132;28;20051;-66
2021/05/13 05:18:33;;;;;;;49.50;14.50;;;;;;;;;;5053200;28;20040;-66
2021/05/13 05:20:58;;;;;;;60.50;14.20;;;;;;;;;;5053280;28;20017;-66
2021/05/13 05:23:25;;;;;;;44.60;13.20;;;;;;;;;;5052920;28;20044;-66
2021/05/13 05:25:51;;;;;;;42.38;12.85;;;;;;;;;;5051861;28;20040;-66
2021/05/13 05:28:16;;;;;;;36.60;13.82;;;;;;;;;;5052963;28;20499;-66
2021/05/13 05:30:42;;;;;;;34.20;12.15;;;;;;;;;;5053201;28;20049;-66
2021/05/13 05:33:08;;;;;;;35.60;12.52;;;;;;;;;;5052616;28;20519;-66
2021/05/13 05:35:34;;;;;;;31.75;12.73;;;;;;;;;;5053017;28;20362;-66
2021/05/13 05:37:59;;;;;;;31.88;12.25;;;;;;;;;;5053005;28;20021;-66
2021/05/13 05:40:25;;;;;;;31.00;11.02;;;;;;;;;;5051153;28;20127;-66
2021/05/13 05:42:50;;;;;;;35.75;12.73;;;;;;;;;;5052856;28;20020;-66
2021/05/13 05:45:17;;;;;;;38.25;11.80;;;;;;;;;;5052834;28;20021;-66
2021/05/13 05:47:42;;;;;;;21.30;10.05;;;;;;;;;;5052554;28;20393;-66
2021/05/13 05:50:08;;;;;;;28.60;10.93;;;;;;;;;;5052878;28;20028;-66
2021/05/13 05:52:34;;;;;;;53.88;13.48;;;;;;;;;;5053400;28;20025;-66
2021/05/13 05:54:59;;;;;;;30.67;11.25;;;;;;;;;;5057012;28;20037;-66
2021/05/13 05:57:25;;;;;;;38.10;12.05;;;;;;;;;;5056681;28;20387;-66
2021/05/13 05:59:50;;;;;;;31.40;11.00;;;;;;;;;;5057229;28;20416;-66
2021/05/13 06:02:15;;;;;;;32.80;11.68;;;;;;;;;;5056687;28;20033;-66
2021/05/13 06:04:41;;;;;;;32.92;10.98;;;;;;;;;;5056737;28;20013;-66
2021/05/13 06:07:07;;;;;;;30.08;11.48;;;;;;;;;;5056598;28;20039;-66
2021/05/13 06:09:32;;;;;;;32.58;10.73;;;;;;;;;;5056565;28;20040;-66
2021/05/13 06:11:57;;;;;;;30.30;11.38;;;;;;;;;;5056883;28;20362;-66
2021/05/13 06:14:23;;;;;;;24.63;9.63;;;;;;;;;;5056599;28;20029;-66
2021/05/13 06:16:48;;;;;;;22.85;10.02;;;;;;;;;;5056424;28;20112;-66
2021/05/13 06:19:14;;;;;;;30.17;9.75;;;;;;;;;;5056205;28;20017;-66
2021/05/13 06:21:39;;;;;;;28.48;10.48;;;;;;;;;;5056443;28;20437;-66
2021/05/13 06:24:08;;;;;;;32.83;10.57;;;;;;;;;;5056484;28;20029;-66
2021/05/13 06:26:33;;;;;;;24.40;8.85;;;;;;;;;;5056083;28;20045;-66
2021/05/13 06:28:59;;;;;;;31.50;10.02;;;;;;;;;;5056339;28;20013;-66
2021/05/13 06:31:24;;;;;;;22.98;9.93;;;;;;;;;;5055974;28;20041;-66
2021/05/13 06:33:50;;;;;;;28.38;9.13;;;;;;;;;;5056278;28;20013;-66
2021/05/13 06:36:16;;;;;;;23.77;7.88;;;;;;;;;;5056120;28;20569;-66
2021/05/13 06:38:41;;;;;;;19.73;8.10;;;;;;;;;;5056112;28;20037;-66
2021/05/13 06:41:09;;;;;;;20.98;8.63;;;;;;;;;;5055647;28;20146;-66
2021/05/13 06:43:34;;;;;;;25.08;8.40;;;;;;;;;;5055991;28;20025;-66
2021/05/13 06:46:00;;;;;;;16.20;8.88;;;;;;;;;;5055969;28;20117;-66
2021/05/13 06:48:25;;;;;;;22.08;7.90;;;;;;;;;;5055773;28;20028;-66
2021/05/13 06:50:50;;;;;;;21.70;8.32;;;;;;;;;;5055657;28;20032;-66
2021/05/13 06:53:16;;;;;;;23.75;7.75;;;;;;;;;;5055749;28;20393;-66
2021/05/13 06:55:41;;;;;;;22.40;7.45;;;;;;;;;;5055807;28;20083;-66
2021/05/13 06:58:07;;;;;;;25.70;7.57;;;;;;;;;;5055843;28;20688;-67
2021/05/13 07:00:33;;;;;;;19.98;6.97;;;;;;;;;;5055686;28;20074;-67
2021/05/13 07:02:58;;;;;;;16.98;7.20;;;;;;;;;;5055113;28;20017;-66
2021/05/13 07:05:24;;;;;;;23.45;7.40;;;;;;;;;;5055158;28;20430;-67
2021/05/13 07:07:49;;;;;;;22.35;7.22;;;;;;;;;;5054157;28;20056;-66
2021/05/13 07:10:15;;;;;;;22.77;6.90;;;;;;;;;;5055268;28;20488;-66
2021/05/13 07:12:41;;;;;;;15.35;7.38;;;;;;;;;;5055159;28;20017;-66
2021/05/13 07:15:07;;;;;;;18.52;6.95;;;;;;;;;;5055543;28;20116;-66
2021/05/13 07:17:32;;;;;;;25.13;7.55;;;;;;;;;;5055159;28;20469;-66
2021/05/13 07:19:58;;;;;;;22.92;7.32;;;;;;;;;;5055493;28;20044;-66
2021/05/13 07:22:23;;;;;;;18.25;6.70;;;;;;;;;;5055143;28;20075;-66
2021/05/13 07:24:48;;;;;;;21.08;6.50;;;;;;;;;;5055189;28;20118;-66
2021/05/13 07:27:14;;;;;;;19.17;7.15;;;;;;;;;;5055174;28;20103;-66
2021/05/13 07:29:39;;;;;;;31.08;7.10;;;;;;;;;;5055178;28;20090;-66
2021/05/13 07:32:05;;;;;;;22.48;8.30;;;;;;;;;;5054833;28;20492;-66
2021/05/13 07:34:30;;;;;;;19.80;7.15;;;;;;;;;;5054756;28;20033;-66
2021/05/13 07:36:55;;;;;;;24.52;7.28;;;;;;;;;;5055017;28;20112;-66
2021/05/13 07:39:21;;;;;;;16.88;6.38;;;;;;;;;;5055013;28;20032;-66
2021/05/13 07:41:47;;;;;;;27.20;7.10;;;;;;;;;;5054794;28;20120;-66
2021/05/13 07:44:12;;;;;;;16.85;7.50;;;;;;;;;;5054774;28;20071;-66
2021/05/13 07:46:39;;;;;;;18.20;6.60;;;;;;;;;;5054736;28;20079;-66
2021/05/13 07:49:05;;;;;;;16.08;6.60;;;;;;;;;;5054617;28;20473;-66
2021/05/13 07:51:31;;;;;;;19.85;6.18;;;;;;;;;;5054382;28;20071;-66
2021/05/13 07:53:57;;;;;;;17.70;6.35;;;;;;;;;;5049123;28;20129;-66
2021/05/13 07:56:22;;;;;;;15.40;6.00;;;;;;;;;;5052436;28;20112;-66
2021/05/13 07:58:48;;;;;;;18.25;7.22;;;;;;;;;;5052027;28;20044;-66
2021/05/13 08:01:13;;;;;;;11.73;5.40;;;;;;;;;;5051940;28;20067;-66
2021/05/13 08:03:38;;;;;;;21.42;5.95;;;;;;;;;;5051842;28;20036;-66
2021/05/13 08:06:04;;;;;;;18.48;6.72;;;;;;;;;;5052197;28;20159;-66
2021/05/13 08:08:29;;;;;;;22.70;6.85;;;;;;;;;;5051623;28;20028;-66
2021/05/13 08:10:54;;;;;;;21.75;7.20;;;;;;;;;;5050609;28;20064;-66
2021/05/13 08:13:20;;;;;;;15.82;5.18;;;;;;;;;;5051156;28;20457;-66
2021/05/13 08:15:45;;;;;;;19.92;6.15;;;;;;;;;;5050470;28;20032;-66
2021/05/13 08:18:10;;;;;;;19.33;5.78;;;;;;;;;;5051170;28;20420;-66
2021/05/13 08:20:36;;;;;;;13.52;4.53;;;;;;;;;;5050767;28;20029;-66
2021/05/13 08:23:02;;;;;;;20.77;5.75;;;;;;;;;;5041600;28;20515;-66
2021/05/13 08:25:27;;;;;;;12.25;4.60;;;;;;;;;;5057401;28;20556;-66
2021/05/13 08:27:53;;;;;;;18.63;5.10;;;;;;;;;;5057297;28;20071;-66
2021/05/13 08:30:19;;;;;;;15.77;5.45;;;;;;;;;;5045678;28;20021;-66
2021/05/13 08:32:44;;;;;;;12.15;4.53;;;;;;;;;;5048404;28;20060;-66
2021/05/13 08:35:10;;;;;;;22.27;5.05;;;;;;;;;;5052618;28;20072;-66
2021/05/13 08:37:35;;;;;;;13.93;4.90;;;;;;;;;;5049104;28;20107;-66
2021/05/13 08:40:01;;;;;;;13.40;4.78;;;;;;;;;;5052553;28;20516;-66
2021/05/13 08:42:26;;;;;;;10.60;4.60;;;;;;;;;;5040595;28;20036;-66
2021/05/13 08:44:52;;;;;;;11.95;4.32;;;;;;;;;;5042690;28;20522;-65
2021/05/13 08:47:17;;;;;;;15.90;4.32;;;;;;;;;;5059824;28;20432;-66
2021/05/13 08:49:42;;;;;;;13.23;4.30;;;;;;;;;;5052439;28;20526;-66
2021/05/13 08:52:08;;;;;;;15.07;4.60;;;;;;;;;;5048616;28;20146;-66
2021/05/13 08:54:34;;;;;;;11.82;4.05;;;;;;;;;;5055918;28;20632;-66
2021/05/13 08:56:59;;;;;;;12.00;4.10;;;;;;;;;;5059395;28;20070;-66
2021/05/13 08:59:27;;;;;;;11.35;3.97;;;;;;;;;;5063843;28;20020;-66
2021/05/13 09:01:54;;;;;;;11.57;4.18;;;;;;;;;;5060672;28;20020;-66
2021/05/13 09:04:20;;;;;;;11.98;3.55;;;;;;;;;;5045833;28;20033;-66
2021/05/13 09:06:46;;;;;;;12.02;4.25;;;;;;;;;;5043466;28;20039;-66
2021/05/13 09:09:18;;;;;;;11.57;3.72;;;;;;;;;;5043842;28;20052;-66
2021/05/13 09:11:48;;;;;;;20.60;4.25;;;;;;;;;;5048396;28;20056;-66
2021/05/13 09:14:19;;;;;;;12.82;3.95;;;;;;;;;;5054993;28;20017;-66
2021/05/13 09:16:48;;;;;;;16.00;4.50;;;;;;;;;;5056685;28;20040;-66
2021/05/13 09:19:19;;;;;;;16.17;4.10;;;;;;;;;;5039963;28;20020;-66
2021/05/13 09:21:58;;;;;;;13.77;4.22;;;;;;;;;;5046190;28;20434;-66
2021/05/13 09:24:42;;;;;;;15.68;4.28;;;;;;;;;;5032450;28;20090;-66
2021/05/13 09:27:14;;;;;;;10.07;4.20;;;;;;;;;;5033540;28;20086;-66
2021/05/13 09:29:39;;;;;;;14.30;4.28;;;;;;;;;;5041012;28;20816;-66
2021/05/13 09:32:14;;;;;;;11.52;4.22;;;;;;;;;;5046131;28;20031;-66
2021/05/13 09:34:39;;;;;;;11.75;3.90;;;;;;;;;;5043906;28;20028;-66
2021/05/13 09:37:04;;;;;;;13.82;4.85;;;;;;;;;;5046429;28;20033;-66
2021/05/13 09:39:32;;;;;;;12.18;3.90;;;;;;;;;;5046549;28;20426;-66
2021/05/13 09:42:01;;;;;;;10.82;4.10;;;;;;;;;;5045881;28;20064;-66
2021/05/13 09:44:34;;;;;;;14.88;4.65;;;;;;;;;;5048521;28;20036;-66
2021/05/13 09:47:19;;;;;;;15.73;5.40;;;;;;;;;;5045061;28;20041;-67
2021/05/13 09:49:54;;;;;;;13.80;4.70;;;;;;;;;;5044281;28;20523;-66
2021/05/13 09:52:20;;;;;;;;;;;;;;;;;;5050612;28;20122;-66
2021/05/13 09:54:45;;;;;;;;;;;;;;;;;;5049953;28;19965;-66
2021/05/13 09:57:10;;;;;;;19.63;4.43;;;;;;;;;;5061744;28;19913;-66
2021/05/13 09:59:36;;;;;;;12.90;4.70;;;;;;;;;;5053560;28;20525;-66
2021/05/13 10:02:06;;;;;;;12.60;3.78;;;;;;;;;;5044936;28;20017;-66
2021/05/13 10:04:31;;;;;;;16.98;5.53;;;;;;;;;;5046219;28;20434;-66
2021/05/13 10:06:57;;;;;;;10.48;4.65;;;;;;;;;;5051071;28;20044;-66
2021/05/13 10:09:23;;;;;;;15.35;5.13;;;;;;;;;;5056670;28;20074;-66
2021/05/13 10:11:51;;;;;;;14.65;4.85;;;;;;;;;;5046214;28;20108;-66
2021/05/13 10:14:18;;;;;;;16.20;4.95;;;;;;;;;;5051196;28;20501;-66
2021/05/13 10:16:44;;;;;;;20.05;6.22;;;;;;;;;;5060326;28;20513;-67
2021/05/13 10:19:14;;;;;;;14.75;4.35;;;;;;;;;;5045626;28;20032;-66
2021/05/13 10:21:40;;;;;;;11.57;3.92;;;;;;;;;;5057759;28;20032;-66
2021/05/13 10:24:06;;;;;;;9.35;3.97;;;;;;;;;;5048884;28;20024;-66
2021/05/13 10:26:40;;;;;;;14.40;4.03;;;;;;;;;;5060705;28;20037;-66
2021/05/13 10:29:21;;;;;;;13.35;4.32;;;;;;;;;;5053036;28;20032;-66
2021/05/13 10:31:47;;;;;;;16.17;3.70;;;;;;;;;;5050811;28;20052;-66
2021/05/13 10:34:13;;;;;;;9.80;3.63;;;;;;;;;;5054822;28;20029;-66
2021/05/13 10:36:38;;;;;;;16.05;4.00;;;;;;;;;;5059881;28;20091;-66
2021/05/13 10:39:08;;;;;;;12.18;3.92;;;;;;;;;;5053842;28;20020;-66
2021/05/13 10:41:35;;;;;;;11.55;4.00;;;;;;;;;;5065761;28;20090;-66
2021/05/13 10:44:09;;;;;;;14.52;3.72;;;;;;;;;;5052531;28;20400;-66
2021/05/13 10:46:35;;;;;;;13.77;3.78;;;;;;;;;;5037928;28;20135;-66
2021/05/13 10:49:16;;;;;;;11.85;3.47;;;;;;;;;;5063413;28;20169;-66
2021/05/13 10:51:42;;;;;;;13.88;3.70;;;;;;;;;;5042508;28;20289;-66
2021/05/13 10:54:08;;;;;;;14.50;3.45;;;;;;;;;;5041771;28;20091;-66
2021/05/13 10:56:35;;;;;;;10.88;3.88;;;;;;;;;;5037863;28;20552;-66
2021/05/13 10:59:10;;;;;;;17.63;5.55;;;;;;;;;;5039202;28;20461;-65
2021/05/13 11:01:39;;;;;;;11.90;4.20;;;;;;;;;;5053821;28;20453;-66
2021/05/13 11:04:23;;;;;;;13.25;3.78;;;;;;;;;;5063847;28;20028;-66
2021/05/13 11:06:48;;;;;;;11.40;3.80;;;;;;;;;;5052585;28;20536;-66
2021/05/13 11:09:32;;;;;;;9.35;4.25;;;;;;;;;;5045406;28;20035;-66
2021/05/13 11:12:16;;;;;;;12.38;3.92;;;;;;;;;;5062175;28;20024;-66
2021/05/13 11:20:28;;;;;;;14.32;3.97;;;;;;;;;;5042141;28;20033;-66
2021/05/13 11:22:54;;;;;;;11.65;4.07;;;;;;;;;;5049406;28;20037;-66
2021/05/13 11:25:20;;;;;;;20.30;5.00;;;;;;;;;;5037456;28;20449;-66
2021/05/13 11:27:45;;;;;;;22.00;4.70;;;;;;;;;;5036563;28;20128;-66
2021/05/13 11:30:11;;;;;;;18.98;5.57;;;;;;;;;;5046038;28;20036;-65
2021/05/13 11:32:36;;;;;;;12.52;4.43;;;;;;;;;;5042729;28;20029;-66
2021/05/13 11:35:02;;;;;;;19.75;4.90;;;;;;;;;;5055493;28;20071;-66
2021/05/13 11:37:35;;;;;;;15.45;5.40;;;;;;;;;;5050400;28;20097;-66
2021/05/13 11:40:17;;;;;;;19.63;6.03;;;;;;;;;;5047329;28;20252;-65
2021/05/13 11:42:42;;;;;;;17.33;4.63;;;;;;;;;;5047785;28;20036;-66
2021/05/13 11:45:15;;;;;;;18.25;4.95;;;;;;;;;;5047769;28;20331;-66
2021/05/13 11:47:40;;;;;;;18.75;5.15;;;;;;;;;;5057260;28;20040;-66
2021/05/13 11:50:06;;;;;;;13.52;4.60;;;;;;;;;;5047567;28;20739;-65
2021/05/13 11:52:33;;;;;;;14.93;4.68;;;;;;;;;;5053339;28;20392;-66
2021/05/13 11:54:58;;;;;;;11.38;4.68;;;;;;;;;;5047528;28;20436;-66
2021/05/13 11:57:23;;;;;;;14.70;4.68;;;;;;;;;;5062213;28;20025;-66
2021/05/13 11:59:50;;;;;;;12.85;5.00;;;;;;;;;;5055825;28;20029;-66
2021/05/13 12:02:16;;;;;;;11.85;4.10;;;;;;;;;;5060708;28;20040;-66
2021/05/13 12:04:41;;;;;;;16.27;4.78;;;;;;;;;;5050758;28;20028;-66
2021/05/13 12:07:08;;;;;;;10.15;4.25;;;;;;;;;;5063233;28;20044;-66
2021/05/13 12:09:33;;;;;;;14.50;4.70;;;;;;;;;;5045571;28;20033;-66
2021/05/13 12:11:59;;;;;;;16.25;5.32;;;;;;;;;;5044966;28;20415;-66
2021/05/13 12:14:29;;;;;;;14.25;4.35;;;;;;;;;;5059348;28;20036;-66
2021/05/13 12:17:01;;;;;;;14.63;4.70;;;;;;;;;;5046524;28;20477;-66
2021/05/13 12:19:27;;;;;;;13.65;5.10;;;;;;;;;;5051716;28;20474;-66
2021/05/13 12:21:53;;;;;;;11.98;4.35;;;;;;;;;;5046794;28;20043;-67
2021/05/13 12:24:25;;;;;;;16.33;4.53;;;;;;;;;;5036756;28;20048;-66
2021/05/13 12:26:50;;;;;;;14.57;4.70;;;;;;;;;;5044920;28;20058;-66
2021/05/13 12:29:16;;;;;;;20.27;5.57;;;;;;;;;;5030368;28;20044;-66
2021/05/13 12:31:44;;;;;;;15.10;5.80;;;;;;;;;;5049099;28;20728;-66
2021/05/13 12:34:10;;;;;;;18.88;5.75;;;;;;;;;;5048408;28;20037;-66
2021/05/13 12:36:36;;;;;;;10.27;5.38;;;;;;;;;;5050180;28;20035;-66
2021/05/13 12:39:02;;;;;;;13.77;4.75;;;;;;;;;;5044497;28;20467;-66
2021/05/13 12:41:28;;;;;;;18.17;5.25;;;;;;;;;;5054254;28;20044;-66
2021/05/13 12:44:04;;;;;;;17.90;5.72;;;;;;;;;;5057507;28;20037;-66
2021/05/13 12:46:30;;;;;;;29.85;9.25;;;;;;;;;;5044474;28;20041;-66
2021/05/13 12:48:56;;;;;;;15.73;4.95;;;;;;;;;;5044414;28;20047;-67
2021/05/13 12:51:22;;;;;;;19.40;5.15;;;;;;;;;;5046193;28;20036;-66
2021/05/13 12:53:57;;;;;;;15.88;5.32;;;;;;;;;;5058794;28;20025;-66
2021/05/13 12:56:27;;;;;;;17.33;5.73;;;;;;;;;;5055453;28;20142;-66
2021/05/13 12:59:09;;;;;;;11.25;5.20;;;;;;;;;;5048690;28;20501;-66
2021/05/13 13:01:36;;;;;;;15.48;5.60;;;;;;;;;;5033216;28;20074;-66
2021/05/13 13:04:05;;;;;;;19.73;5.55;;;;;;;;;;5056270;28;20521;-66
2021/05/13 13:06:30;;;;;;;17.10;6.35;;;;;;;;;;5055251;28;20424;-66
2021/05/13 13:08:55;;;;;;;15.93;6.60;;;;;;;;;;5038297;28;20291;-65
2021/05/13 13:11:30;;;;;;;18.30;6.13;;;;;;;;;;5045129;28;20021;-66
2021/05/13 13:13:59;;;;;;;23.33;9.25;;;;;;;;;;5043942;28;20060;-66
2021/05/13 13:16:25;;;;;;;21.27;6.20;;;;;;;;;;5040378;28;20023;-66
2021/05/13 13:19:09;;;;;;;18.52;6.85;;;;;;;;;;5041380;28;20279;-66
2021/05/13 13:21:35;;;;;;;17.15;6.68;;;;;;;;;;5044590;28;20024;-66
2021/05/13 13:24:13;;;;;;;17.98;7.40;;;;;;;;;;5044629;28;20439;-66
2021/05/13 13:26:41;;;;;;;20.27;6.82;;;;;;;;;;5044776;28;20083;-65
2021/05/13 13:29:07;;;;;;;24.98;7.50;;;;;;;;;;5053627;28;20067;-66
2021/05/13 13:31:36;;;;;;;18.63;7.43;;;;;;;;;;5054298;28;20904;-66
2021/05/13 13:34:02;;;;;;;16.40;6.88;;;;;;;;;;5059023;28;20036;-66
2021/05/13 13:36:27;;;;;;;19.63;7.15;;;;;;;;;;5052555;28;20028;-66
2021/05/13 13:38:52;;;;;;;17.40;6.40;;;;;;;;;;5047828;28;20028;-66
2021/05/13 13:41:18;;;;;;;19.50;6.72;;;;;;;;;;5048329;28;20440;-66
2021/05/13 13:43:43;;;;;;;18.38;7.43;;;;;;;;;;5042291;28;20116;-66
2021/05/13 13:46:09;;;;;;;20.08;8.27;;;;;;;;;;5041286;28;20533;-66
2021/05/13 13:48:34;;;;;;;17.58;7.10;;;;;;;;;;5041631;28;20442;-66
2021/05/13 13:51:00;;;;;;;19.77;7.80;;;;;;;;;;5041715;28;20041;-66
2021/05/13 13:53:26;;;;;;;17.90;7.40;;;;;;;;;;5041022;28;20029;-66
2021/05/13 13:55:53;;;;;;;24.45;9.07;;;;;;;;;;5041151;28;20100;-66
2021/05/13 13:58:19;;;;;;;26.17;9.68;;;;;;;;;;5049146;28;20028;-66
2021/05/13 14:00:44;;;;;;;30.70;10.05;;;;;;;;;;5047451;28;20025;-66
2021/05/13 14:03:10;;;;;;;16.33;7.65;;;;;;;;;;5058069;28;20078;-65
2021/05/13 14:05:35;;;;;;;17.90;5.20;;;;;;;;;;5047433;28;20110;-66
2021/05/13 14:08:00;;;;;;;13.55;5.22;;;;;;;;;;5059696;28;20020;-65
2021/05/13 14:10:27;;;;;;;17.40;5.80;;;;;;;;;;5052038;28;20024;-65
2021/05/13 14:12:53;;;;;;;21.05;7.45;;;;;;;;;;5052436;28;20040;-65
2021/05/13 14:15:18;;;;;;;21.63;6.60;;;;;;;;;;5062499;28;20047;-65
2021/05/13 14:17:43;;;;;;;16.73;7.22;;;;;;;;;;5046100;28;20025;-66
2021/05/13 14:20:10;;;;;;;23.90;7.10;;;;;;;;;;5047851;28;20490;-66
2021/05/13 14:22:36;;;;;;;20.30;7.40;;;;;;;;;;5056361;28;20024;-66
2021/05/13 14:25:01;;;;;;;23.65;6.45;;;;;;;;;;5047111;28;20035;-65
2021/05/13 14:27:27;;;;;;;13.93;4.78;;;;;;;;;;5062846;28;20040;-65
2021/05/13 14:29:52;;;;;;;8.45;3.60;;;;;;;;;;5051097;28;20024;-66
2021/05/13 14:32:18;;;;;;;11.05;3.95;;;;;;;;;;5060783;28;20021;-66
2021/05/13 14:34:43;;;;;;;14.35;4.28;;;;;;;;;;5058187;28;20040;-66
2021/05/13 14:37:09;;;;;;;6.68;2.70;;;;;;;;;;5045390;28;20037;-66
2021/05/13 14:39:35;;;;;;;10.13;3.20;;;;;;;;;;5042491;28;20020;-66